createdAt,value
2022-10-22T00:02:08.169Z,19.02
2022-10-22T00:04:54.636Z,17.88
2022-10-22T00:07:40.599Z,19.73
2022-10-22T00:10:26.473Z,21.55
2022-10-22T00:13:13.191Z,23.27
2022-10-22T00:15:58.869Z,21.73
2022-10-22T00:18:44.421Z,20.02
2022-10-22T00:21:30.764Z,21.90
2022-10-22T00:24:16.982Z,21.95
2022-10-22T00:27:04.112Z,24.15
2022-10-22T00:29:50.425Z,20.98
2022-10-22T00:32:36.072Z,23.65
2022-10-22T00:35:22.129Z,23.15
2022-10-22T00:38:07.952Z,25.02
2022-10-22T00:40:54.411Z,27.08
2022-10-22T00:44:00.357Z,24.92
2022-10-22T00:46:46.006Z,25.33
2022-10-22T00:49:31.527Z,27.30
2022-10-22T00:52:17.707Z,27.77
2022-10-22T00:55:03.553Z,25.45
2022-10-22T00:57:50.001Z,26.50
2022-10-22T01:00:36.079Z,25.70
2022-10-22T01:03:22.504Z,26.02
2022-10-22T01:06:08.367Z,29.60
2022-10-22T01:09:19.399Z,27.92
2022-10-22T01:12:05.084Z,27.13
2022-10-22T01:15:12.912Z,25.45
2022-10-22T01:18:03.433Z,27.17
2022-10-22T01:21:19.197Z,26.95
2022-10-22T01:24:13.790Z,32.13
2022-10-22T01:27:23.878Z,29.67
2022-10-22T01:30:14.443Z,29.30
2022-10-22T01:33:04.025Z,33.10
2022-10-22T01:35:50.202Z,27.15
2022-10-22T01:38:36.465Z,35.42
2022-10-22T01:41:21.855Z,34.30
2022-10-22T01:44:07.617Z,34.25
2022-10-22T01:47:05.190Z,33.65
2022-10-22T01:50:10.028Z,26.80
2022-10-22T01:53:17.359Z,29.90
2022-10-22T01:56:15.562Z,25.58
2022-10-22T01:59:25.204Z,26.33
2022-10-22T02:02:17.456Z,27.73
2022-10-22T02:05:11.859Z,27.42
2022-10-22T02:08:03.426Z,26.25
2022-10-22T02:10:49.713Z,26.48
2022-10-22T02:13:41.650Z,32.70
2022-10-22T02:16:34.608Z,28.70
2022-10-22T02:19:25.906Z,28.17
2022-10-22T02:22:11.517Z,24.30
2022-10-22T02:24:57.730Z,25.05
2022-10-22T02:27:52.180Z,25.35
2022-10-22T02:30:41.507Z,24.05
2022-10-22T02:33:30.828Z,24.00
2022-10-22T02:36:17.439Z,22.42
2022-10-22T02:39:03.867Z,24.55
2022-10-22T02:41:50.102Z,21.80
2022-10-22T02:44:35.686Z,23.63
2022-10-22T02:47:22.386Z,22.73
2022-10-22T02:50:10.309Z,21.75
2022-10-22T02:52:56.816Z,20.83
2022-10-22T02:55:43.023Z,22.67
2022-10-22T02:58:29.642Z,23.08
2022-10-22T03:01:16.247Z,21.05
2022-10-22T03:04:02.578Z,22.17
2022-10-22T03:06:49.101Z,20.67
2022-10-22T03:09:35.287Z,19.75
2022-10-22T03:12:21.353Z,20.65
2022-10-22T03:15:07.195Z,20.95
2022-10-22T03:17:52.696Z,19.98
2022-10-22T03:20:39.038Z,21.13
2022-10-22T03:23:24.495Z,21.30
2022-10-22T03:26:12.683Z,21.33
2022-10-22T03:28:58.225Z,21.65
2022-10-22T03:31:44.163Z,22.33
2022-10-22T03:34:29.660Z,22.30
2022-10-22T03:37:15.258Z,25.52
2022-10-22T03:40:01.094Z,26.42
2022-10-22T03:42:47.241Z,23.02
2022-10-22T03:45:32.658Z,23.85
2022-10-22T03:48:18.710Z,23.90
2022-10-22T03:51:04.530Z,22.27
2022-10-22T03:53:50.704Z,24.50
2022-10-22T03:56:36.556Z,22.33
2022-10-22T03:59:22.166Z,23.52
2022-10-22T04:02:07.866Z,22.35
2022-10-22T04:04:53.625Z,23.65
2022-10-22T04:07:39.213Z,22.33
2022-10-22T04:10:25.737Z,23.20
2022-10-22T04:13:11.302Z,23.55
2022-10-22T04:16:16.244Z,24.05
2022-10-22T04:19:02.115Z,26.17
2022-10-22T04:21:48.387Z,24.30
2022-10-22T04:24:34.134Z,26.88
2022-10-22T04:27:19.769Z,26.38
2022-10-22T04:30:06.728Z,28.23
2022-10-22T04:32:52.877Z,25.80
2022-10-22T04:35:39.847Z,26.77
2022-10-22T04:38:25.603Z,26.90
2022-10-22T04:41:16.432Z,27.67
2022-10-22T04:44:02.749Z,25.13
2022-10-22T04:46:48.434Z,29.23
2022-10-22T04:49:34.224Z,25.73
2022-10-22T04:52:20.033Z,24.33
2022-10-22T04:55:05.849Z,24.63
2022-10-22T04:57:51.358Z,26.83
2022-10-22T05:00:37.545Z,29.05
2022-10-22T05:03:25.156Z,25.63
2022-10-22T05:09:01.890Z,25.67
2022-10-22T05:11:50.803Z,26.75
2022-10-22T05:14:36.280Z,27.83
2022-10-22T05:17:22.103Z,27.33
2022-10-22T05:20:08.482Z,26.92
2022-10-22T05:22:54.301Z,24.15
2022-10-22T05:25:39.900Z,25.38
2022-10-22T05:28:25.408Z,26.30
2022-10-22T05:31:12.405Z,26.23
2022-10-22T05:33:58.090Z,28.00
2022-10-22T05:36:43.744Z,27.73
2022-10-22T05:39:29.840Z,25.27
2022-10-22T05:42:15.780Z,26.83
2022-10-22T05:45:01.434Z,24.58
2022-10-22T05:47:46.839Z,26.85
2022-10-22T05:50:32.840Z,26.92
2022-10-22T05:53:18.584Z,26.02
2022-10-22T05:56:07.845Z,26.13
2022-10-22T05:58:53.990Z,26.05
2022-10-22T06:01:41.009Z,27.80
2022-10-22T06:04:26.726Z,26.73
2022-10-22T06:07:15.363Z,26.80
2022-10-22T06:10:01.137Z,26.20
2022-10-22T06:12:48.328Z,26.05
2022-10-22T06:15:34.274Z,26.90
2022-10-22T06:18:20.561Z,24.50
2022-10-22T06:21:11.571Z,27.63
2022-10-22T06:23:58.669Z,24.85
2022-10-22T06:26:44.946Z,23.92
2022-10-22T06:29:30.596Z,24.80
2022-10-22T06:32:16.228Z,25.60
2022-10-22T06:35:02.247Z,24.10
2022-10-22T06:37:47.911Z,27.05
2022-10-22T06:40:33.987Z,27.38
2022-10-22T06:43:19.684Z,27.77
2022-10-22T06:46:08.844Z,27.23
2022-10-22T06:48:57.352Z,29.40
2022-10-22T06:51:43.330Z,26.30
2022-10-22T06:54:28.944Z,24.63
2022-10-22T06:57:14.820Z,28.85
2022-10-22T07:00:00.238Z,32.25
2022-10-22T07:02:56.405Z,30.08
2022-10-22T07:05:44.486Z,32.03
2022-10-22T07:08:30.789Z,39.47
2022-10-22T07:11:17.525Z,61.80
2022-10-22T07:14:04.103Z,40.72
2022-10-22T07:16:49.978Z,72.35
2022-10-22T07:19:35.828Z,90.47
2022-10-22T07:22:21.886Z,90.70
2022-10-22T07:25:08.669Z,58.10
2022-10-22T07:27:54.519Z,65.72
2022-10-22T07:30:40.545Z,52.78
2022-10-22T07:33:27.175Z,52.22
2022-10-22T07:36:17.774Z,54.00
2022-10-22T07:39:04.192Z,44.65
2022-10-22T07:41:50.671Z,44.42
2022-10-22T07:44:36.331Z,50.33
2022-10-22T07:47:22.457Z,61.25
2022-10-22T07:50:08.355Z,40.85
2022-10-22T07:52:56.120Z,33.45
2022-10-22T07:55:43.733Z,37.25
2022-10-22T07:58:29.707Z,37.42
2022-10-22T08:01:15.380Z,41.08
2022-10-22T08:04:01.556Z,42.85
2022-10-22T08:06:47.472Z,41.58
2022-10-22T08:09:33.920Z,40.38
2022-10-22T08:12:19.369Z,47.67
2022-10-22T08:15:06.328Z,60.33
2022-10-22T08:17:52.098Z,51.30
2022-10-22T08:20:38.217Z,52.33
2022-10-22T08:23:27.496Z,59.67
2022-10-22T08:28:59.956Z,39.50
2022-10-22T08:31:46.037Z,40.47
2022-10-22T08:34:31.530Z,37.15
2022-10-22T08:37:17.912Z,42.15
2022-10-22T08:40:04.706Z,37.53
2022-10-22T08:43:04.829Z,50.17
2022-10-22T08:46:01.505Z,44.80
2022-10-22T08:49:13.037Z,44.00
2022-10-22T08:51:59.623Z,36.67
2022-10-22T08:54:52.266Z,33.83
2022-10-22T08:57:42.778Z,45.72
2022-10-22T09:00:54.051Z,30.17
2022-10-22T09:03:51.307Z,36.13
2022-10-22T09:06:38.148Z,30.75
2022-10-22T09:09:36.139Z,42.22
2022-10-22T09:12:22.878Z,48.00
2022-10-22T09:15:13.751Z,33.67
2022-10-22T09:20:58.549Z,46.88
2022-10-22T09:23:50.642Z,42.00
2022-10-22T09:26:38.090Z,50.30
2022-10-22T09:29:31.979Z,42.10
2022-10-22T09:32:18.767Z,42.92
2022-10-22T09:35:04.931Z,37.67
2022-10-22T09:37:55.510Z,44.58
2022-10-22T09:43:32.806Z,44.20
2022-10-22T09:46:21.760Z,50.45
2022-10-22T09:49:13.804Z,64.47
2022-10-22T09:52:00.942Z,39.17
2022-10-22T09:54:46.671Z,68.07
2022-10-22T09:57:32.844Z,44.05
2022-10-22T10:00:19.268Z,32.60
2022-10-22T10:03:04.975Z,28.45
2022-10-22T10:05:54.759Z,29.88
2022-10-22T10:08:40.588Z,40.50
2022-10-22T10:11:37.613Z,31.58
2022-10-22T10:14:37.823Z,44.17
2022-10-22T10:17:40.186Z,42.10
2022-10-22T10:21:07.897Z,32.83
2022-10-22T10:24:12.432Z,47.25
2022-10-22T10:27:01.075Z,32.25
2022-10-22T10:30:01.453Z,47.25
2022-10-22T10:33:06.267Z,51.90
2022-10-22T10:36:03.135Z,42.10
2022-10-22T10:38:54.896Z,44.85
2022-10-22T10:41:40.550Z,46.92
2022-10-22T10:45:00.262Z,36.63
2022-10-22T10:48:10.896Z,38.08
2022-10-22T10:51:28.603Z,31.60
2022-10-22T10:54:29.704Z,36.67
2022-10-22T10:57:34.546Z,27.85
2022-10-22T11:00:21.574Z,31.85
2022-10-22T11:03:46.528Z,30.33
2022-10-22T11:06:34.219Z,47.47
2022-10-22T11:09:30.368Z,47.47
2022-10-22T11:12:23.522Z,68.93
2022-10-22T11:15:19.546Z,51.50
2022-10-22T11:18:20.998Z,43.25
2022-10-22T11:21:13.357Z,31.58
2022-10-22T11:24:08.416Z,40.08
2022-10-22T11:26:56.490Z,47.15
2022-10-22T11:29:47.446Z,45.45
2022-10-22T11:32:33.597Z,47.70
2022-10-22T11:35:27.211Z,55.50
2022-10-22T11:38:17.400Z,48.33
2022-10-22T11:41:11.608Z,56.60
2022-10-22T11:44:07.823Z,55.50
2022-10-22T11:46:53.457Z,99.18
2022-10-22T11:49:55.081Z,72.60
2022-10-22T11:52:46.065Z,60.95
2022-10-22T11:55:34.500Z,51.78
2022-10-22T11:58:29.613Z,35.28
2022-10-22T12:01:45.218Z,30.98
2022-10-22T12:04:41.540Z,26.00
2022-10-22T12:07:47.083Z,44.70
2022-10-22T12:10:48.782Z,25.42
2022-10-22T12:13:58.796Z,38.25
2022-10-22T12:16:58.090Z,24.83
2022-10-22T12:19:50.162Z,28.73
2022-10-22T12:22:39.372Z,26.15
2022-10-22T12:25:35.479Z,27.13
2022-10-22T12:28:21.731Z,27.80
2022-10-22T12:31:16.149Z,24.73
2022-10-22T12:34:01.718Z,25.48
2022-10-22T12:36:48.902Z,45.13
2022-10-22T12:39:35.607Z,47.28
2022-10-22T12:42:24.028Z,115.50
2022-10-22T12:45:09.957Z,146.00
2022-10-22T12:47:58.258Z,133.75
2022-10-22T12:50:47.361Z,91.72
2022-10-22T12:53:33.451Z,51.30
2022-10-22T12:56:48.341Z,29.63
2022-10-22T12:59:38.383Z,26.63
2022-10-22T13:02:26.647Z,33.42
2022-10-22T13:05:17.248Z,37.35
2022-10-22T13:08:04.383Z,30.75
2022-10-22T13:10:53.176Z,28.33
2022-10-22T13:13:38.796Z,29.98
2022-10-22T13:16:27.762Z,26.73
2022-10-22T13:19:42.500Z,31.40
2022-10-22T13:22:39.921Z,29.55
2022-10-22T13:25:38.574Z,30.83
2022-10-22T13:28:25.150Z,25.88
2022-10-22T13:31:32.254Z,34.40
2022-10-22T13:34:19.974Z,24.23
2022-10-22T13:37:09.270Z,33.42
2022-10-22T13:39:56.001Z,33.13
2022-10-22T13:42:41.973Z,35.67
2022-10-22T13:45:29.288Z,39.78
2022-10-22T13:48:16.600Z,34.65
2022-10-22T13:51:03.162Z,40.63
2022-10-22T13:53:50.995Z,47.22
2022-10-22T13:56:37.217Z,31.70
2022-10-22T13:59:23.892Z,26.73
2022-10-22T14:02:14.367Z,28.92
2022-10-22T14:05:03.301Z,29.00
2022-10-22T14:07:49.807Z,29.98
2022-10-22T14:10:35.589Z,26.67
2022-10-22T14:13:21.939Z,26.27
2022-10-22T14:16:11.500Z,28.05
2022-10-22T14:18:57.887Z,27.77
2022-10-22T14:21:43.897Z,27.25
2022-10-22T14:24:29.976Z,29.92
2022-10-22T14:27:15.603Z,27.70
2022-10-22T14:30:01.281Z,26.83
2022-10-22T14:32:48.842Z,24.15
2022-10-22T14:35:34.693Z,23.40
2022-10-22T14:38:20.392Z,25.73
2022-10-22T14:41:17.058Z,24.45
2022-10-22T14:44:03.257Z,24.60
2022-10-22T14:46:50.179Z,25.02
2022-10-22T14:49:35.781Z,28.17
2022-10-22T14:52:21.934Z,29.23
2022-10-22T14:55:12.240Z,26.17
2022-10-22T15:00:44.034Z,32.90
2022-10-22T15:03:30.436Z,33.83
2022-10-22T15:06:15.864Z,34.17
2022-10-22T15:09:02.426Z,34.83
2022-10-22T15:11:48.277Z,33.33
2022-10-22T15:14:34.162Z,37.65
2022-10-22T15:17:19.834Z,33.95
2022-10-22T15:20:06.219Z,33.30
2022-10-22T15:22:51.866Z,35.85
2022-10-22T15:25:38.261Z,28.80
2022-10-22T15:28:24.410Z,24.85
2022-10-22T15:31:14.173Z,23.67
2022-10-22T15:34:01.792Z,30.02
2022-10-22T15:36:48.004Z,26.92
2022-10-22T15:39:34.089Z,24.80
2022-10-22T15:42:20.107Z,27.25
2022-10-22T15:45:06.423Z,26.45
2022-10-22T15:47:52.461Z,27.40
2022-10-22T15:50:38.870Z,23.60
2022-10-22T15:53:24.666Z,31.38
2022-10-22T15:56:11.840Z,20.13
2022-10-22T15:59:05.151Z,29.50
2022-10-22T16:01:51.572Z,26.45
2022-10-22T16:04:38.433Z,28.35
2022-10-22T16:07:24.927Z,25.80
2022-10-22T16:10:12.885Z,33.65
2022-10-22T16:12:58.874Z,32.78
2022-10-22T16:15:44.720Z,26.85
2022-10-22T16:18:30.273Z,29.67
2022-10-22T16:21:16.128Z,26.70
2022-10-22T16:24:06.102Z,27.02
2022-10-22T16:26:53.350Z,46.33
2022-10-22T16:29:39.686Z,31.10
2022-10-22T16:32:25.654Z,25.70
2022-10-22T16:35:11.094Z,30.65
2022-10-22T16:37:57.152Z,28.40
2022-10-22T16:40:42.659Z,27.23
2022-10-22T16:43:29.266Z,26.83
2022-10-22T16:46:16.310Z,30.52
2022-10-22T16:49:02.897Z,28.95
2022-10-22T16:51:48.435Z,25.65
2022-10-22T16:54:34.000Z,28.08
2022-10-22T16:57:19.501Z,25.75
2022-10-22T17:00:06.405Z,26.17
2022-10-22T17:02:53.425Z,25.75
2022-10-22T17:05:39.588Z,27.48
2022-10-22T17:08:25.629Z,28.08
2022-10-22T17:11:13.795Z,29.45
2022-10-22T17:13:59.225Z,27.10
2022-10-22T17:16:48.974Z,30.35
2022-10-22T17:19:38.660Z,31.00
2022-10-22T17:22:24.813Z,27.83
2022-10-22T17:25:17.822Z,27.88
2022-10-22T17:28:03.923Z,32.40
2022-10-22T17:30:49.473Z,30.23
2022-10-22T17:33:36.338Z,33.60
2022-10-22T17:36:24.158Z,31.15
2022-10-22T17:39:13.961Z,29.67
2022-10-22T17:41:59.475Z,30.05
2022-10-22T17:44:45.572Z,28.25
2022-10-22T17:47:31.064Z,25.58
2022-10-22T17:50:17.122Z,26.17
2022-10-22T17:53:02.613Z,27.67
2022-10-22T17:55:48.688Z,29.77
2022-10-22T17:58:34.237Z,27.33
2022-10-22T18:01:22.082Z,29.42
2022-10-22T18:04:08.716Z,28.42
2022-10-22T18:06:55.016Z,31.02
2022-10-22T18:09:40.838Z,30.67
2022-10-22T18:12:26.554Z,31.48
2022-10-22T18:15:12.037Z,32.85
2022-10-22T18:17:57.888Z,30.30
2022-10-22T18:20:48.982Z,30.42
2022-10-22T18:23:34.941Z,31.08
2022-10-22T18:26:25.807Z,37.80
2022-10-22T18:29:16.071Z,31.55
2022-10-22T18:32:01.669Z,34.60
2022-10-22T18:34:48.159Z,33.90
2022-10-22T18:37:36.093Z,28.95
2022-10-22T18:40:22.405Z,30.75
2022-10-22T18:43:08.225Z,32.33
2022-10-22T18:45:54.071Z,31.83
2022-10-22T18:48:39.687Z,38.58
2022-10-22T18:51:30.525Z,35.22
2022-10-22T18:54:23.227Z,31.10
2022-10-22T18:57:09.646Z,30.40
2022-10-22T18:59:58.578Z,28.05
2022-10-22T19:02:45.369Z,25.13
2022-10-22T19:05:31.075Z,29.02
2022-10-22T19:08:18.109Z,28.02
2022-10-22T19:11:10.340Z,28.92
2022-10-22T19:13:56.430Z,31.23
2022-10-22T19:16:42.011Z,30.20
2022-10-22T19:19:28.139Z,29.55
2022-10-22T19:22:14.001Z,29.45
2022-10-22T19:24:59.573Z,29.88
2022-10-22T19:27:45.431Z,29.05
2022-10-22T19:30:31.822Z,29.40
2022-10-22T19:33:17.728Z,30.42
2022-10-22T19:36:06.959Z,30.23
2022-10-22T19:38:52.544Z,29.33
2022-10-22T19:41:38.902Z,27.85
2022-10-22T19:44:24.867Z,27.40
2022-10-22T19:47:11.532Z,28.98
2022-10-22T19:49:57.164Z,29.80
2022-10-22T19:52:43.380Z,27.95
2022-10-22T19:55:29.342Z,30.67
2022-10-22T19:58:15.942Z,29.10
2022-10-22T20:01:09.269Z,29.25
2022-10-22T20:03:55.526Z,28.88
2022-10-22T20:06:41.008Z,30.38
2022-10-22T20:09:27.073Z,28.48
2022-10-22T20:12:12.732Z,28.70
2022-10-22T20:14:58.803Z,31.27
2022-10-22T20:17:45.383Z,30.50
2022-10-22T20:20:37.685Z,31.77
2022-10-22T20:23:23.529Z,31.15
2022-10-22T20:26:09.733Z,32.10
2022-10-22T20:28:56.276Z,33.28
2022-10-22T20:31:42.730Z,30.85
2022-10-22T20:34:28.739Z,32.40
2022-10-22T20:37:14.387Z,29.88
2022-10-22T20:39:59.956Z,30.25
2022-10-22T20:42:47.239Z,33.85
2022-10-22T20:45:32.725Z,32.85
2022-10-22T20:48:18.602Z,34.03
2022-10-22T20:51:05.007Z,32.33
2022-10-22T20:53:51.480Z,33.33
2022-10-22T20:56:39.117Z,30.10
2022-10-22T20:59:32.382Z,31.80
2022-10-22T21:02:18.035Z,29.65
2022-10-22T21:05:03.768Z,28.13
2022-10-22T21:07:49.268Z,30.27
2022-10-22T21:10:35.002Z,29.08
2022-10-22T21:13:20.579Z,27.85
2022-10-22T21:16:11.444Z,28.65
2022-10-22T21:18:57.157Z,29.90
2022-10-22T21:21:42.621Z,27.40
2022-10-22T21:24:28.159Z,27.63
2022-10-22T21:27:13.963Z,30.15
2022-10-22T21:30:00.394Z,26.77
2022-10-22T21:32:46.405Z,26.10
2022-10-22T21:35:33.349Z,26.30
2022-10-22T21:38:19.833Z,28.20
2022-10-22T21:41:07.304Z,26.63
2022-10-22T21:43:53.158Z,25.40
2022-10-22T21:46:38.616Z,25.58
2022-10-22T21:49:24.973Z,26.50
2022-10-22T21:52:10.428Z,25.25
2022-10-22T21:54:56.855Z,25.02
2022-10-22T21:57:42.718Z,25.00
2022-10-22T22:00:28.872Z,23.63
2022-10-22T22:03:14.566Z,24.25
2022-10-22T22:06:02.154Z,24.33
2022-10-22T22:08:48.323Z,24.52
2022-10-22T22:11:34.380Z,23.83
2022-10-22T22:14:19.730Z,24.25
2022-10-22T22:17:05.635Z,22.83
2022-10-22T22:19:51.011Z,24.02
2022-10-22T22:22:36.874Z,23.80
2022-10-22T22:25:22.274Z,23.60
2022-10-22T22:28:07.969Z,24.25
2022-10-22T22:30:53.464Z,23.33
2022-10-22T22:33:39.717Z,22.88
2022-10-22T22:36:25.193Z,23.98
2022-10-22T22:39:12.705Z,25.17
2022-10-22T22:41:59.502Z,24.35
2022-10-22T22:44:46.463Z,28.67
2022-10-22T22:47:32.286Z,27.45
2022-10-22T22:50:18.471Z,26.48
2022-10-22T22:53:03.899Z,26.88
2022-10-22T22:55:50.416Z,25.17
2022-10-22T22:58:37.807Z,25.67
2022-10-22T23:01:29.751Z,26.58
2022-10-22T23:04:19.090Z,27.67
2022-10-22T23:07:05.008Z,27.85
2022-10-22T23:09:50.406Z,27.33
2022-10-22T23:12:36.216Z,26.65
2022-10-22T23:15:21.953Z,25.75
2022-10-22T23:18:07.460Z,24.33
2022-10-22T23:20:53.417Z,24.58
2022-10-22T23:23:43.052Z,26.20
2022-10-22T23:26:49.465Z,23.75
2022-10-22T23:29:36.425Z,23.48
2022-10-22T23:32:21.992Z,23.55
2022-10-22T23:35:09.490Z,23.85
2022-10-22T23:37:54.951Z,23.30
2022-10-22T23:40:40.701Z,23.20
2022-10-22T23:43:27.113Z,23.48
2022-10-22T23:46:14.198Z,22.35
2022-10-22T23:49:00.466Z,21.50
2022-10-22T23:51:46.619Z,21.48
2022-10-22T23:54:32.335Z,21.83
2022-10-22T23:57:18.759Z,21.75
